Thunder radar more information blitzortung!


Radar de pluja more information rain snow radar


Visita la nostra xarxa de llocs de meteo:

Template documentation
and downloads

And another site



Wind From: 11-12-2017 11:00 Until: 14:59 warning for: Wind Level: Yellow info button

Pagina Historial Weather Underground text

Diari Resum Juliol 13, 2017 Unitats:  Tant    Imperial   Mètric
« Previous Dia
SegĂźent Dia »
Diari Setmana Mensual Anual Personalitzada
  Maxima: Minima: Media:
Temperatura: 89.8 °F /  32.1 °C 70.3 °F /  21.3 °C 81.5 °F /  27.5 °C
Punt de rosada: 70.9 °F /  21.6 °C 65.7 °F /  18.7 °C 68.2 °F /  20.1 °C
Humitat: 87 % 52 % 65 %
Wind Speed: 13.8 mph /  22.2 km/h - 5 mph /  8 km/h
RĂ fegues de vent: 13.8 mph /  22.2 km/h - -
Vent:- - South
Pression baro: 30.1 in /  1017.8 hPa 29.9 in /  1012.8 hPa -
Precipitacions: 0 in /  0.0 mm    
Historical Graphs
 
 
Dades de taula per Juliol 13, 2017
Temps Temperatura Punt de rosada Pression baro Vent Wind Speed RĂ fegues de vent Humitat Rainfall Rate (Hourly)
00:03 75.4 °F /  24.1 °C 67.3 °F /  19.6 °C 30.1 in /  1017.8 hPa NE 2.4 mph /  3.9 km/h 2.4 mph /  3.9 km/h 76 % 0 in /  0.0 mm
00:05 71.6 °F /  22.0 °C 66.6 °F /  19.2 °C 30.1 in /  1017.8 hPa Calm     84 % 0 in /  0.0 mm
00:15 71.6 °F /  22.0 °C 66.6 °F /  19.2 °C 30.1 in /  1017.8 hPa Calm     84 % 0 in /  0.0 mm
00:25 71.6 °F /  22.0 °C 66.7 °F /  19.3 °C 30.1 in /  1017.8 hPa Calm     85 % 0 in /  0.0 mm
00:35 71.4 °F /  21.9 °C 66.7 °F /  19.3 °C 30.1 in /  1017.8 hPa Calm     85 % 0 in /  0.0 mm
00:45 71.1 °F /  21.7 °C 66.4 °F /  19.1 °C 30.1 in /  1017.8 hPa Calm     85 % 0 in /  0.0 mm
00:55 70.7 °F /  21.5 °C 66 °F /  18.9 °C 30.1 in /  1017.8 hPa Calm   1 mph /  1.6 km/h 85 % 0 in /  0.0 mm
01:05 70.5 °F /  21.4 °C 65.8 °F /  18.8 °C 30.1 in /  1017.8 hPa West 2 mph /  3.2 km/h 2 mph /  3.2 km/h 85 % 0 in /  0.0 mm
01:15 70.3 °F /  21.3 °C 65.7 °F /  18.7 °C 30.1 in /  1017.8 hPa WSW 1 mph /  1.6 km/h 2 mph /  3.2 km/h 85 % 0 in /  0.0 mm
01:25 70.3 °F /  21.3 °C 66 °F /  18.9 °C 30.1 in /  1017.8 hPa SW 1 mph /  1.6 km/h 2 mph /  3.2 km/h 86 % 0 in /  0.0 mm
01:35 70.3 °F /  21.3 °C 66 °F /  18.9 °C 30.1 in /  1017.8 hPa Calm   2 mph /  3.2 km/h 86 % 0 in /  0.0 mm
01:45 70.5 °F /  21.4 °C 66 °F /  18.9 °C 30 in /  1016.8 hPa Calm   1 mph /  1.6 km/h 86 % 0 in /  0.0 mm
01:55 70.5 °F /  21.4 °C 66.6 °F /  19.2 °C 30 in /  1016.8 hPa Calm     87 % 0 in /  0.0 mm
02:05 70.3 °F /  21.3 °C 66 °F /  18.9 °C 30.1 in /  1017.8 hPa North 1 mph /  1.6 km/h 2 mph /  3.2 km/h 86 % 0 in /  0.0 mm
02:15 70.7 °F /  21.5 °C 66.4 °F /  19.1 °C 30 in /  1016.8 hPa NE 1 mph /  1.6 km/h 1 mph /  1.6 km/h 86 % 0 in /  0.0 mm
02:25 71.2 °F /  21.8 °C 66.6 °F /  19.2 °C 30 in /  1016.8 hPa NE 2 mph /  3.2 km/h 3 mph /  4.8 km/h 85 % 0 in /  0.0 mm
02:35 71.4 °F /  21.9 °C 66.7 °F /  19.3 °C 30.1 in /  1017.8 hPa NE 1 mph /  1.6 km/h 2 mph /  3.2 km/h 85 % 0 in /  0.0 mm
02:45 71.4 °F /  21.9 °C 66.4 °F /  19.1 °C 30.1 in /  1017.8 hPa ENE 2 mph /  3.2 km/h 3 mph /  4.8 km/h 84 % 0 in /  0.0 mm
02:55 71.4 °F /  21.9 °C 66.4 °F /  19.1 °C 30.1 in /  1017.8 hPa ENE 1 mph /  1.6 km/h 2 mph /  3.2 km/h 84 % 0 in /  0.0 mm
03:05 71.6 °F /  22.0 °C 66.6 °F /  19.2 °C 30.1 in /  1017.8 hPa Calm   2 mph /  3.2 km/h 84 % 0 in /  0.0 mm
03:15 71.8 °F /  22.1 °C 66.4 °F /  19.1 °C 30 in /  1016.8 hPa SW 2 mph /  3.2 km/h 3 mph /  4.8 km/h 83 % 0 in /  0.0 mm
03:25 71.8 °F /  22.1 °C 66.7 °F /  19.3 °C 30 in /  1016.8 hPa SW 1 mph /  1.6 km/h 2 mph /  3.2 km/h 84 % 0 in /  0.0 mm
03:35 72 °F /  22.2 °C 66.9 °F /  19.4 °C 30.1 in /  1017.8 hPa SW 1 mph /  1.6 km/h 2 mph /  3.2 km/h 84 % 0 in /  0.0 mm
03:45 72.7 °F /  22.6 °C 67.3 °F /  19.6 °C 30.1 in /  1017.8 hPa SW 1 mph /  1.6 km/h 2 mph /  3.2 km/h 83 % 0 in /  0.0 mm
03:55 73.4 °F /  23.0 °C 67.6 °F /  19.8 °C 30.1 in /  1017.8 hPa SW 1 mph /  1.6 km/h 2 mph /  3.2 km/h 82 % 0 in /  0.0 mm
04:05 74.3 °F /  23.5 °C 68.4 °F /  20.2 °C 30.1 in /  1017.8 hPa SW 1 mph /  1.6 km/h 2 mph /  3.2 km/h 82 % 0 in /  0.0 mm
04:15 74.8 °F /  23.8 °C 68.5 °F /  20.3 °C 30.1 in /  1017.8 hPa SW 1 mph /  1.6 km/h 2 mph /  3.2 km/h 81 % 0 in /  0.0 mm
04:25 75.9 °F /  24.4 °C 69.3 °F /  20.7 °C 30.1 in /  1017.8 hPa SW 1 mph /  1.6 km/h 2 mph /  3.2 km/h 80 % 0 in /  0.0 mm
04:35 77.2 °F /  25.1 °C 69.8 °F /  21.0 °C 30.1 in /  1017.8 hPa SSW 3 mph /  4.8 km/h 3 mph /  4.8 km/h 78 % 0 in /  0.0 mm
04:45 79 °F /  26.1 °C 70.9 °F /  21.6 °C 30.1 in /  1017.8 hPa SW 2 mph /  3.2 km/h 3 mph /  4.8 km/h 76 % 0 in /  0.0 mm
04:55 79.9 °F /  26.6 °C 70.9 °F /  21.6 °C 30.1 in /  1017.8 hPa SW 3 mph /  4.8 km/h 6 mph /  9.7 km/h 74 % 0 in /  0.0 mm
05:05 79.9 °F /  26.6 °C 70.3 °F /  21.3 °C 30.1 in /  1017.8 hPa SSW 3 mph /  4.8 km/h 5 mph /  8.0 km/h 73 % 0 in /  0.0 mm
05:15 80.2 °F /  26.8 °C 70 °F /  21.1 °C 30.1 in /  1017.8 hPa SW 3 mph /  4.8 km/h 4 mph /  6.4 km/h 71 % 0 in /  0.0 mm
05:25 80.8 °F /  27.1 °C 69.6 °F /  20.9 °C 30.1 in /  1017.8 hPa SW 3 mph /  4.8 km/h 4 mph /  6.4 km/h 69 % 0 in /  0.0 mm
05:35 81.3 °F /  27.4 °C 69.3 °F /  20.7 °C 30.1 in /  1017.8 hPa SW 3 mph /  4.8 km/h 6 mph /  9.7 km/h 67 % 0 in /  0.0 mm
05:45 82.6 °F /  28.1 °C 69.6 °F /  20.9 °C 30.1 in /  1017.8 hPa SW 3 mph /  4.8 km/h 8 mph /  12.9 km/h 65 % 0 in /  0.0 mm
05:55 82.2 °F /  27.9 °C 68.7 °F /  20.4 °C 30.1 in /  1017.8 hPa SW 3 mph /  4.8 km/h 8 mph /  12.9 km/h 64 % 0 in /  0.0 mm
06:05 82.8 °F /  28.2 °C 68.4 °F /  20.2 °C 30.1 in /  1017.8 hPa WSW 7 mph /  11.3 km/h 8 mph /  12.9 km/h 62 % 0 in /  0.0 mm
06:15 83.8 °F /  28.8 °C 69.1 °F /  20.6 °C 30 in /  1016.8 hPa WSW 6 mph /  9.7 km/h 6 mph /  9.7 km/h 61 % 0 in /  0.0 mm
06:25 84.7 °F /  29.3 °C 68.7 °F /  20.4 °C 30 in /  1016.8 hPa SW 5 mph /  8.0 km/h 8 mph /  12.9 km/h 59 % 0 in /  0.0 mm
06:35 85.5 °F /  29.7 °C 69.4 °F /  20.8 °C 30.1 in /  1017.8 hPa WSW 3 mph /  4.8 km/h 7 mph /  11.3 km/h 59 % 0 in /  0.0 mm
06:45 84.4 °F /  29.1 °C 68 °F /  20.0 °C 30.1 in /  1017.8 hPa SW 3 mph /  4.8 km/h 6 mph /  9.7 km/h 58 % 0 in /  0.0 mm
06:55 85.5 °F /  29.7 °C 68.5 °F /  20.3 °C 30.1 in /  1017.8 hPa SW 7 mph /  11.3 km/h 12 mph /  19.3 km/h 57 % 0 in /  0.0 mm
07:05 86 °F /  30.0 °C 69.1 °F /  20.6 °C 30.1 in /  1017.8 hPa SW 3 mph /  4.8 km/h 6 mph /  9.7 km/h 57 % 0 in /  0.0 mm
07:15 86.7 °F /  30.4 °C 69.6 °F /  20.9 °C 30.1 in /  1017.8 hPa SW 5 mph /  8.0 km/h 7 mph /  11.3 km/h 57 % 0 in /  0.0 mm
12:22 86.5 °F /  30.3 °C 69.1 °F /  20.6 °C 30.1 in /  1017.8 hPa SW 5.8 mph /  9.3 km/h 5.8 mph /  9.3 km/h 56 % 0 in /  0.0 mm
12:27 87.3 °F /  30.7 °C 69.1 °F /  20.6 °C 30.1 in /  1017.8 hPa SW 5.8 mph /  9.3 km/h 5.8 mph /  9.3 km/h 55 % 0 in /  0.0 mm
12:32 86.7 °F /  30.4 °C 68.5 °F /  20.3 °C 30.1 in /  1017.8 hPa WSW 6 mph /  9.7 km/h 6.7 mph /  10.8 km/h 55 % 0 in /  0.0 mm
12:37 86.9 °F /  30.5 °C 68.7 °F /  20.4 °C 30.1 in /  1017.8 hPa SSW 6.9 mph /  11.1 km/h 6.9 mph /  11.1 km/h 55 % 0 in /  0.0 mm
12:42 86.9 °F /  30.5 °C 68.7 °F /  20.4 °C 30.1 in /  1017.8 hPa South 12.7 mph /  20.4 km/h 12.7 mph /  20.4 km/h 55 % 0 in /  0.0 mm
12:47 86.7 °F /  30.4 °C 68.5 °F /  20.3 °C 30.1 in /  1017.8 hPa SW 5.9 mph /  9.5 km/h 5.9 mph /  9.5 km/h 55 % 0 in /  0.0 mm
12:52 86.2 °F /  30.1 °C 68.2 °F /  20.1 °C 30.1 in /  1017.8 hPa SW 11.5 mph /  18.5 km/h 11.5 mph /  18.5 km/h 55 % 0 in /  0.0 mm
12:57 85.8 °F /  29.9 °C 68.4 °F /  20.2 °C 30.1 in /  1017.8 hPa SW 8.1 mph /  13.0 km/h 8.1 mph /  13.0 km/h 56 % 0 in /  0.0 mm
13:02 86.4 °F /  30.2 °C 68.4 °F /  20.2 °C 30.1 in /  1017.8 hPa WSW 9.2 mph /  14.8 km/h 9.2 mph /  14.8 km/h 55 % 0 in /  0.0 mm
13:07 86.7 °F /  30.4 °C 68.5 °F /  20.3 °C 30.1 in /  1017.8 hPa SW 10.7 mph /  17.2 km/h 10.7 mph /  17.2 km/h 55 % 0 in /  0.0 mm
13:12 85.8 °F /  29.9 °C 68.4 °F /  20.2 °C 30 in /  1016.8 hPa WSW 10.4 mph /  16.7 km/h 10.4 mph /  16.7 km/h 56 % 0 in /  0.0 mm
13:17 86 °F /  30.0 °C 68.5 °F /  20.3 °C 30 in /  1016.8 hPa South 8.1 mph /  13.0 km/h 8.1 mph /  13.0 km/h 56 % 0 in /  0.0 mm
13:22 85.8 °F /  29.9 °C 68.4 °F /  20.2 °C 30 in /  1016.8 hPa SW 9.2 mph /  14.8 km/h 9.2 mph /  14.8 km/h 56 % 0 in /  0.0 mm
13:27 86.4 °F /  30.2 °C 68.7 °F /  20.4 °C 30 in /  1016.8 hPa SW 6.9 mph /  11.1 km/h 6.9 mph /  11.1 km/h 56 % 0 in /  0.0 mm
13:32 86 °F /  30.0 °C 68.5 °F /  20.3 °C 30 in /  1016.8 hPa SSW 5.8 mph /  9.3 km/h 5.8 mph /  9.3 km/h 56 % 0 in /  0.0 mm
13:37 85.8 °F /  29.9 °C 68.4 °F /  20.2 °C 30 in /  1016.8 hPa SW 10.4 mph /  16.7 km/h 10.4 mph /  16.7 km/h 56 % 0 in /  0.0 mm
13:42 85.8 °F /  29.9 °C 68.4 °F /  20.2 °C 30 in /  1015.8 hPa WSW 8.1 mph /  13.0 km/h 8.1 mph /  13.0 km/h 56 % 0 in /  0.0 mm
13:47 86.5 °F /  30.3 °C 68.5 °F /  20.3 °C 30 in /  1015.8 hPa SW 8.7 mph /  14.0 km/h 8.7 mph /  14.0 km/h 55 % 0 in /  0.0 mm
13:52 86.2 °F /  30.1 °C 68.2 °F /  20.1 °C 30 in /  1015.8 hPa South 8.1 mph /  13.0 km/h 8.1 mph /  13.0 km/h 55 % 0 in /  0.0 mm
13:57 86 °F /  30.0 °C 68 °F /  20.0 °C 30 in /  1015.8 hPa SW 9.2 mph /  14.8 km/h 9.2 mph /  14.8 km/h 55 % 0 in /  0.0 mm
14:02 86.2 °F /  30.1 °C 68.2 °F /  20.1 °C 30 in /  1015.8 hPa WSW 7.4 mph /  11.9 km/h 7.4 mph /  11.9 km/h 55 % 0 in /  0.0 mm
14:07 86.5 °F /  30.3 °C 68.5 °F /  20.3 °C 30 in /  1015.8 hPa SSW 5.8 mph /  9.3 km/h 5.8 mph /  9.3 km/h 55 % 0 in /  0.0 mm
14:12 85.6 °F /  29.8 °C 68.2 °F /  20.1 °C 30 in /  1015.8 hPa West 10.4 mph /  16.7 km/h 10.4 mph /  16.7 km/h 56 % 0 in /  0.0 mm
14:17 86 °F /  30.0 °C 68 °F /  20.0 °C 30 in /  1015.8 hPa SW 9.2 mph /  14.8 km/h 9.2 mph /  14.8 km/h 55 % 0 in /  0.0 mm
14:22 86.5 °F /  30.3 °C 68.5 °F /  20.3 °C 30 in /  1015.8 hPa SSW 3.5 mph /  5.6 km/h 3.8 mph /  6.1 km/h 55 % 0 in /  0.0 mm
14:27 87.4 °F /  30.8 °C 69.3 °F /  20.7 °C 30 in /  1015.8 hPa SW 10.4 mph /  16.7 km/h 10.4 mph /  16.7 km/h 55 % 0 in /  0.0 mm
14:32 87.1 °F /  30.6 °C 69.1 °F /  20.6 °C 30 in /  1015.8 hPa ESE 13.8 mph /  22.2 km/h 13.8 mph /  22.2 km/h 55 % 0 in /  0.0 mm
14:37 86.2 °F /  30.1 °C 68.2 °F /  20.1 °C 30 in /  1015.8 hPa SW 12.7 mph /  20.4 km/h 12.7 mph /  20.4 km/h 55 % 0 in /  0.0 mm
14:42 86.2 °F /  30.1 °C 68.2 °F /  20.1 °C 30 in /  1015.8 hPa SW 11.5 mph /  18.5 km/h 11.5 mph /  18.5 km/h 55 % 0 in /  0.0 mm
14:47 85.5 °F /  29.7 °C 68 °F /  20.0 °C 30 in /  1015.8 hPa South 8.1 mph /  13.0 km/h 8.1 mph /  13.0 km/h 56 % 0 in /  0.0 mm
14:52 85.5 °F /  29.7 °C 68 °F /  20.0 °C 30 in /  1015.8 hPa SW 9.2 mph /  14.8 km/h 9.2 mph /  14.8 km/h 56 % 0 in /  0.0 mm
14:57 85.8 °F /  29.9 °C 68.4 °F /  20.2 °C 30 in /  1014.8 hPa SW 10.4 mph /  16.7 km/h 10.4 mph /  16.7 km/h 56 % 0 in /  0.0 mm
15:02 86.5 °F /  30.3 °C 69.1 °F /  20.6 °C 30 in /  1014.8 hPa SW 5.8 mph /  9.3 km/h 5.8 mph /  9.3 km/h 56 % 0 in /  0.0 mm
15:07 86.2 °F /  30.1 °C 68.5 °F /  20.3 °C 30 in /  1014.8 hPa SW 8.1 mph /  13.0 km/h 8.1 mph /  13.0 km/h 56 % 0 in /  0.0 mm
15:12 86.4 °F /  30.2 °C 68.7 °F /  20.4 °C 30 in /  1014.8 hPa South 9.2 mph /  14.8 km/h 9.2 mph /  14.8 km/h 56 % 0 in /  0.0 mm
15:17 86.9 °F /  30.5 °C 69.3 °F /  20.7 °C 30 in /  1014.8 hPa WSW 5.8 mph /  9.3 km/h 5.8 mph /  9.3 km/h 56 % 0 in /  0.0 mm
15:22 87.6 °F /  30.9 °C 69.4 °F /  20.8 °C 30 in /  1015.8 hPa SSW 8.1 mph /  13.0 km/h 8.1 mph /  13.0 km/h 55 % 0 in /  0.0 mm
15:27 86.5 °F /  30.3 °C 68.5 °F /  20.3 °C 30 in /  1015.8 hPa South 8.1 mph /  13.0 km/h 8.1 mph /  13.0 km/h 55 % 0 in /  0.0 mm
15:32 87.3 °F /  30.7 °C 69.1 °F /  20.6 °C 30 in /  1015.8 hPa SW 8.1 mph /  13.0 km/h 8.1 mph /  13.0 km/h 55 % 0 in /  0.0 mm
15:37 87.8 °F /  31.0 °C 69.1 °F /  20.6 °C 30 in /  1015.8 hPa South 10.4 mph /  16.7 km/h 10.4 mph /  16.7 km/h 54 % 0 in /  0.0 mm
15:42 87.3 °F /  30.7 °C 69.1 °F /  20.6 °C 30 in /  1015.8 hPa SSW 6.9 mph /  11.1 km/h 6.9 mph /  11.1 km/h 55 % 0 in /  0.0 mm
15:44 87.3 °F /  30.7 °C 69.1 °F /  20.6 °C 30 in /  1015.8 hPa South 9.8 mph /  15.8 km/h 9.8 mph /  15.8 km/h 55 % 0 in /  0.0 mm
15:49 86.9 °F /  30.5 °C 68.7 °F /  20.4 °C 30 in /  1015.8 hPa SW 10.4 mph /  16.7 km/h 10.4 mph /  16.7 km/h 55 % 0 in /  0.0 mm
15:54 87.6 °F /  30.9 °C 69.4 °F /  20.8 °C 30 in /  1015.8 hPa SW 6.2 mph /  10.0 km/h 6.2 mph /  10.0 km/h 55 % 0 in /  0.0 mm
15:59 88.5 °F /  31.4 °C 69.8 °F /  21.0 °C 30 in /  1015.8 hPa WSW 6.9 mph /  11.1 km/h 6.9 mph /  11.1 km/h 54 % 0 in /  0.0 mm
16:04 87.3 °F /  30.7 °C 68.5 °F /  20.3 °C 30 in /  1015.8 hPa SSW 12.7 mph /  20.4 km/h 12.7 mph /  20.4 km/h 54 % 0 in /  0.0 mm
16:09 86.5 °F /  30.3 °C 68.5 °F /  20.3 °C 30 in /  1014.8 hPa SW 9.2 mph /  14.8 km/h 9.2 mph /  14.8 km/h 55 % 0 in /  0.0 mm
16:14 86.5 °F /  30.3 °C 68.5 °F /  20.3 °C 30 in /  1014.8 hPa SW 9.2 mph /  14.8 km/h 9.2 mph /  14.8 km/h 55 % 0 in /  0.0 mm
16:19 87.1 °F /  30.6 °C 69.1 °F /  20.6 °C 30 in /  1014.8 hPa SSE 9.2 mph /  14.8 km/h 9.2 mph /  14.8 km/h 55 % 0 in /  0.0 mm
16:24 87.4 °F /  30.8 °C 69.3 °F /  20.7 °C 30 in /  1014.8 hPa SSW 10.7 mph /  17.2 km/h 10.7 mph /  17.2 km/h 55 % 0 in /  0.0 mm
16:29 86.5 °F /  30.3 °C 68.5 °F /  20.3 °C 30 in /  1014.8 hPa South 5.8 mph /  9.3 km/h 5.8 mph /  9.3 km/h 55 % 0 in /  0.0 mm
16:34 88 °F /  31.1 °C 69.3 °F /  20.7 °C 30 in /  1014.8 hPa SW 4.3 mph /  6.9 km/h 4.3 mph /  6.9 km/h 54 % 0 in /  0.0 mm
16:39 88.5 °F /  31.4 °C 69.8 °F /  21.0 °C 30 in /  1014.8 hPa SW 10 mph /  16.1 km/h 10 mph /  16.1 km/h 54 % 0 in /  0.0 mm
16:44 88 °F /  31.1 °C 69.3 °F /  20.7 °C 30 in /  1014.8 hPa South 5.8 mph /  9.3 km/h 5.8 mph /  9.3 km/h 54 % 0 in /  0.0 mm
16:49 88.5 °F /  31.4 °C 69.3 °F /  20.7 °C 30 in /  1014.8 hPa SW 4.6 mph /  7.4 km/h 4.6 mph /  7.4 km/h 53 % 0 in /  0.0 mm
16:54 88.3 °F /  31.3 °C 69.1 °F /  20.6 °C 30 in /  1014.8 hPa SSW 6.4 mph /  10.3 km/h 6.4 mph /  10.3 km/h 53 % 0 in /  0.0 mm
16:59 88.7 °F /  31.5 °C 69.4 °F /  20.8 °C 30 in /  1014.8 hPa West 4.6 mph /  7.4 km/h 4.6 mph /  7.4 km/h 53 % 0 in /  0.0 mm
17:04 89.1 °F /  31.7 °C 69.6 °F /  20.9 °C 30 in /  1014.8 hPa West 6.9 mph /  11.1 km/h 6.9 mph /  11.1 km/h 53 % 0 in /  0.0 mm
17:09 89.2 °F /  31.8 °C 69.3 °F /  20.7 °C 29.9 in /  1013.8 hPa SSE 5.8 mph /  9.3 km/h 5.8 mph /  9.3 km/h 52 % 0 in /  0.0 mm
17:14 88.2 °F /  31.2 °C 68.4 °F /  20.2 °C 29.9 in /  1013.8 hPa SW 5.8 mph /  9.3 km/h 5.8 mph /  9.3 km/h 52 % 0 in /  0.0 mm
17:19 88.9 °F /  31.6 °C 69.4 °F /  20.8 °C 29.9 in /  1013.8 hPa SW 6 mph /  9.7 km/h 6 mph /  9.7 km/h 53 % 0 in /  0.0 mm
17:24 89.1 °F /  31.7 °C 69.1 °F /  20.6 °C 29.9 in /  1013.8 hPa SSW 6.9 mph /  11.1 km/h 6.9 mph /  11.1 km/h 52 % 0 in /  0.0 mm
17:29 89.2 °F /  31.8 °C 69.3 °F /  20.7 °C 29.9 in /  1013.8 hPa South 5.9 mph /  9.5 km/h 5.9 mph /  9.5 km/h 52 % 0 in /  0.0 mm
17:34 89.8 °F /  32.1 °C 70.3 °F /  21.3 °C 29.9 in /  1013.8 hPa SW 8.1 mph /  13.0 km/h 8.1 mph /  13.0 km/h 53 % 0 in /  0.0 mm
17:39 89.4 °F /  31.9 °C 69.4 °F /  20.8 °C 29.9 in /  1013.8 hPa SSW 8.1 mph /  13.0 km/h 8.1 mph /  13.0 km/h 52 % 0 in /  0.0 mm
17:44 89.2 °F /  31.8 °C 69.3 °F /  20.7 °C 29.9 in /  1013.8 hPa WSW 7.6 mph /  12.2 km/h 7.6 mph /  12.2 km/h 52 % 0 in /  0.0 mm
17:49 89.2 °F /  31.8 °C 69.3 °F /  20.7 °C 29.9 in /  1013.8 hPa SW 4.6 mph /  7.4 km/h 4.6 mph /  7.4 km/h 52 % 0 in /  0.0 mm
17:54 89.4 °F /  31.9 °C 69.4 °F /  20.8 °C 29.9 in /  1013.8 hPa NNE 8.1 mph /  13.0 km/h 8.1 mph /  13.0 km/h 52 % 0 in /  0.0 mm
17:59 89.2 °F /  31.8 °C 69.3 °F /  20.7 °C 29.9 in /  1013.8 hPa SW 2.3 mph /  3.7 km/h 2.3 mph /  3.7 km/h 52 % 0 in /  0.0 mm
18:04 88.5 °F /  31.4 °C 68.5 °F /  20.3 °C 29.9 in /  1013.8 hPa South 5.8 mph /  9.3 km/h 5.8 mph /  9.3 km/h 52 % 0 in /  0.0 mm
18:09 88.7 °F /  31.5 °C 69.4 °F /  20.8 °C 29.9 in /  1013.8 hPa SSW 5.8 mph /  9.3 km/h 5.8 mph /  9.3 km/h 53 % 0 in /  0.0 mm
18:14 88.5 °F /  31.4 °C 69.3 °F /  20.7 °C 29.9 in /  1013.8 hPa SSW 4.6 mph /  7.4 km/h 4.6 mph /  7.4 km/h 53 % 0 in /  0.0 mm
18:19 88.3 °F /  31.3 °C 69.1 °F /  20.6 °C 29.9 in /  1013.8 hPa SSW 3.5 mph /  5.6 km/h 3.6 mph /  5.8 km/h 53 % 0 in /  0.0 mm
18:24 87.8 °F /  31.0 °C 68.5 °F /  20.3 °C 29.9 in /  1013.8 hPa SW 8.1 mph /  13.0 km/h 8.1 mph /  13.0 km/h 53 % 0 in /  0.0 mm
18:29 87.8 °F /  31.0 °C 68.5 °F /  20.3 °C 29.9 in /  1013.8 hPa SSE 6.9 mph /  11.1 km/h 6.9 mph /  11.1 km/h 53 % 0 in /  0.0 mm
18:34 88.3 °F /  31.3 °C 68.5 °F /  20.3 °C 29.9 in /  1013.8 hPa South 4.6 mph /  7.4 km/h 4.6 mph /  7.4 km/h 52 % 0 in /  0.0 mm
18:35 88.2 °F /  31.2 °C 68.4 °F /  20.2 °C 29.9 in /  1013.8 hPa SW 7.4 mph /  11.9 km/h 7.4 mph /  11.9 km/h 52 % 0 in /  0.0 mm
18:40 87.6 °F /  30.9 °C 68.4 °F /  20.2 °C 29.9 in /  1013.8 hPa SW 5.8 mph /  9.3 km/h 5.8 mph /  9.3 km/h 53 % 0 in /  0.0 mm
18:45 87.3 °F /  30.7 °C 68 °F /  20.0 °C 29.9 in /  1013.8 hPa ESE 4.6 mph /  7.4 km/h 4.6 mph /  7.4 km/h 53 % 0 in /  0.0 mm
18:50 87.1 °F /  30.6 °C 67.8 °F /  19.9 °C 29.9 in /  1013.8 hPa SW 6.9 mph /  11.1 km/h 6.9 mph /  11.1 km/h 53 % 0 in /  0.0 mm
18:55 86.7 °F /  30.4 °C 66.9 °F /  19.4 °C 29.9 in /  1013.8 hPa SW 5.9 mph /  9.5 km/h 5.9 mph /  9.5 km/h 52 % 0 in /  0.0 mm
19:00 86.2 °F /  30.1 °C 66.6 °F /  19.2 °C 29.9 in /  1013.8 hPa South 6.9 mph /  11.1 km/h 6.9 mph /  11.1 km/h 52 % 0 in /  0.0 mm
19:05 86.2 °F /  30.1 °C 66.9 °F /  19.4 °C 29.9 in /  1013.8 hPa SW 5.8 mph /  9.3 km/h 5.8 mph /  9.3 km/h 53 % 0 in /  0.0 mm
19:10 86.5 °F /  30.3 °C 67.5 °F /  19.7 °C 29.9 in /  1013.8 hPa SSW 8.5 mph /  13.7 km/h 8.5 mph /  13.7 km/h 53 % 0 in /  0.0 mm
19:15 86.5 °F /  30.3 °C 67.5 °F /  19.7 °C 29.9 in /  1013.8 hPa SW 3.6 mph /  5.8 km/h 3.6 mph /  5.8 km/h 53 % 0 in /  0.0 mm
19:20 86.5 °F /  30.3 °C 67.5 °F /  19.7 °C 29.9 in /  1013.8 hPa SW 4.3 mph /  6.9 km/h 4.3 mph /  6.9 km/h 53 % 0 in /  0.0 mm
19:25 86.7 °F /  30.4 °C 67.5 °F /  19.7 °C 29.9 in /  1013.8 hPa WSW 5.8 mph /  9.3 km/h 5.8 mph /  9.3 km/h 53 % 0 in /  0.0 mm
19:30 86.5 °F /  30.3 °C 67.5 °F /  19.7 °C 29.9 in /  1013.8 hPa WSW 5.8 mph /  9.3 km/h 5.8 mph /  9.3 km/h 53 % 0 in /  0.0 mm
19:35 85.8 °F /  29.9 °C 67.3 °F /  19.6 °C 29.9 in /  1013.8 hPa West 5.8 mph /  9.3 km/h 5.8 mph /  9.3 km/h 54 % 0 in /  0.0 mm
19:40 85.6 °F /  29.8 °C 67.1 °F /  19.5 °C 29.9 in /  1012.8 hPa SSW 4.6 mph /  7.4 km/h 4.6 mph /  7.4 km/h 54 % 0 in /  0.0 mm
19:41 85.6 °F /  29.8 °C 67.1 °F /  19.5 °C 29.9 in /  1012.8 hPa SSW 6.4 mph /  10.3 km/h 6.4 mph /  10.3 km/h 54 % 0 in /  0.0 mm
19:45 75.9 °F /  24.4 °C 69.3 °F /  20.7 °C 30 in /  1015.8 hPa ESE 3 mph /  4.8 km/h 5 mph /  8.0 km/h 80 % 0 in /  0.0 mm
19:46 85.1 °F /  29.5 °C 66.6 °F /  19.2 °C 29.9 in /  1012.8 hPa SSW 5.8 mph /  9.3 km/h 5.8 mph /  9.3 km/h 54 % 0 in /  0.0 mm
19:51 84.9 °F /  29.4 °C 66.4 °F /  19.1 °C 29.9 in /  1012.8 hPa SSW 5.9 mph /  9.5 km/h 5.9 mph /  9.5 km/h 54 % 0 in /  0.0 mm
19:55 75.7 °F /  24.3 °C 69.1 °F /  20.6 °C 30 in /  1015.8 hPa East 2 mph /  3.2 km/h 4 mph /  6.4 km/h 80 % 0 in /  0.0 mm
19:56 84.7 °F /  29.3 °C 66.4 °F /  19.1 °C 30 in /  1014.8 hPa WSW 5.8 mph /  9.3 km/h 5.8 mph /  9.3 km/h 54 % 0 in /  0.0 mm
20:01 84.6 °F /  29.2 °C 66 °F /  18.9 °C 30 in /  1014.8 hPa SW 6 mph /  9.7 km/h 6 mph /  9.7 km/h 54 % 0 in /  0.0 mm
20:06 84.4 °F /  29.1 °C 65.8 °F /  18.8 °C 30 in /  1014.8 hPa SSE 4.6 mph /  7.4 km/h 4.6 mph /  7.4 km/h 54 % 0 in /  0.0 mm
20:11 84.2 °F /  29.0 °C 65.8 °F /  18.8 °C 29.9 in /  1013.8 hPa SW 4.6 mph /  7.4 km/h 4.6 mph /  7.4 km/h 54 % 0 in /  0.0 mm
20:15 75.9 °F /  24.4 °C 69.6 °F /  20.9 °C 30 in /  1015.8 hPa East 3 mph /  4.8 km/h 5 mph /  8.0 km/h 81 % 0 in /  0.0 mm
20:16 83.8 °F /  28.8 °C 65.8 °F /  18.8 °C 29.9 in /  1013.8 hPa SW 4.6 mph /  7.4 km/h 4.6 mph /  7.4 km/h 55 % 0 in /  0.0 mm
20:21 84 °F /  28.9 °C 66 °F /  18.9 °C 29.9 in /  1013.8 hPa SW 5.8 mph /  9.3 km/h 5.8 mph /  9.3 km/h 55 % 0 in /  0.0 mm
20:25 75.7 °F /  24.3 °C 69.4 °F /  20.8 °C 30 in /  1015.8 hPa East 2 mph /  3.2 km/h 4 mph /  6.4 km/h 81 % 0 in /  0.0 mm
20:26 83.7 °F /  28.7 °C 66.4 °F /  19.1 °C 29.9 in /  1013.8 hPa WSW 2.4 mph /  3.9 km/h 2.4 mph /  3.9 km/h 56 % 0 in /  0.0 mm
20:31 83.7 °F /  28.7 °C 66.4 °F /  19.1 °C 29.9 in /  1013.8 hPa WSW 2.6 mph /  4.2 km/h 2.6 mph /  4.2 km/h 56 % 0 in /  0.0 mm
20:35 75.9 °F /  24.4 °C 69.3 °F /  20.7 °C 30 in /  1015.8 hPa East 1 mph /  1.6 km/h 2 mph /  3.2 km/h 80 % 0 in /  0.0 mm
20:36 83.1 °F /  28.4 °C 65.8 °F /  18.8 °C 29.9 in /  1013.8 hPa SW 3.3 mph /  5.3 km/h 3.3 mph /  5.3 km/h 56 % 0 in /  0.0 mm
20:41 82.9 °F /  28.3 °C 65.7 °F /  18.7 °C 29.9 in /  1012.8 hPa South 3.5 mph /  5.6 km/h 3.5 mph /  5.6 km/h 56 % 0 in /  0.0 mm
20:45 75.9 °F /  24.4 °C 69.3 °F /  20.7 °C 30 in /  1016.8 hPa ENE 3 mph /  4.8 km/h 4 mph /  6.4 km/h 80 % 0 in /  0.0 mm
20:46 82.6 °F /  28.1 °C 65.8 °F /  18.8 °C 29.9 in /  1012.8 hPa East 5.8 mph /  9.3 km/h 5.8 mph /  9.3 km/h 57 % 0 in /  0.0 mm
20:51 81.3 °F /  27.4 °C 66 °F /  18.9 °C 29.9 in /  1012.8 hPa SE 5.8 mph /  9.3 km/h 5.8 mph /  9.3 km/h 60 % 0 in /  0.0 mm
20:55 75.9 °F /  24.4 °C 69.3 °F /  20.7 °C 30 in /  1016.8 hPa East 2 mph /  3.2 km/h 3 mph /  4.8 km/h 80 % 0 in /  0.0 mm
20:56 80.8 °F /  27.1 °C 66.6 °F /  19.2 °C 29.9 in /  1013.8 hPa ESE 10.4 mph /  16.7 km/h 10.4 mph /  16.7 km/h 62 % 0 in /  0.0 mm
21:01 79.9 °F /  26.6 °C 67.1 °F /  19.5 °C 29.9 in /  1013.8 hPa ESE 9.2 mph /  14.8 km/h 9.2 mph /  14.8 km/h 65 % 0 in /  0.0 mm
21:05 75.9 °F /  24.4 °C 69.3 °F /  20.7 °C 30 in /  1016.8 hPa East 3 mph /  4.8 km/h 3 mph /  4.8 km/h 80 % 0 in /  0.0 mm
21:06 79.7 °F /  26.5 °C 67.3 °F /  19.6 °C 29.9 in /  1013.8 hPa ESE 8.1 mph /  13.0 km/h 8.1 mph /  13.0 km/h 66 % 0 in /  0.0 mm
21:11 79.5 °F /  26.4 °C 68 °F /  20.0 °C 29.9 in /  1013.8 hPa ESE 10.4 mph /  16.7 km/h 10.4 mph /  16.7 km/h 68 % 0 in /  0.0 mm
21:15 75.7 °F /  24.3 °C 69.1 °F /  20.6 °C 30 in /  1015.8 hPa East 3 mph /  4.8 km/h 3 mph /  4.8 km/h 80 % 0 in /  0.0 mm
21:16 79.2 °F /  26.2 °C 67.6 °F /  19.8 °C 29.9 in /  1013.8 hPa SSE 6.9 mph /  11.1 km/h 6.9 mph /  11.1 km/h 68 % 0 in /  0.0 mm
21:21 78.8 °F /  26.0 °C 67.8 °F /  19.9 °C 29.9 in /  1013.8 hPa ENE 6.9 mph /  11.1 km/h 6.9 mph /  11.1 km/h 69 % 0 in /  0.0 mm
21:25 75.7 °F /  24.3 °C 69.1 °F /  20.6 °C 30 in /  1015.8 hPa East 3 mph /  4.8 km/h 5 mph /  8.0 km/h 80 % 0 in /  0.0 mm
21:26 78.4 °F /  25.8 °C 67.8 °F /  19.9 °C 29.9 in /  1013.8 hPa ENE 5.8 mph /  9.3 km/h 5.8 mph /  9.3 km/h 70 % 0 in /  0.0 mm
21:31 78.3 °F /  25.7 °C 68.2 °F /  20.1 °C 29.9 in /  1013.8 hPa SE 6 mph /  9.7 km/h 6 mph /  9.7 km/h 71 % 0 in /  0.0 mm
21:35 75.6 °F /  24.2 °C 69.1 °F /  20.6 °C 30 in /  1015.8 hPa East 3 mph /  4.8 km/h 4 mph /  6.4 km/h 80 % 0 in /  0.0 mm
21:36 78.3 °F /  25.7 °C 68.2 °F /  20.1 °C 29.9 in /  1013.8 hPa ESE 5.8 mph /  9.3 km/h 5.8 mph /  9.3 km/h 71 % 0 in /  0.0 mm
21:41 78.3 °F /  25.7 °C 68.2 °F /  20.1 °C 30 in /  1014.8 hPa ESE 5.8 mph /  9.3 km/h 5.8 mph /  9.3 km/h 71 % 0 in /  0.0 mm
21:45 75.6 °F /  24.2 °C 69.3 °F /  20.7 °C 30 in /  1015.8 hPa East 2 mph /  3.2 km/h 4 mph /  6.4 km/h 81 % 0 in /  0.0 mm
21:46 78.3 °F /  25.7 °C 68.2 °F /  20.1 °C 30 in /  1014.8 hPa ENE 4.6 mph /  7.4 km/h 4.6 mph /  7.4 km/h 71 % 0 in /  0.0 mm
21:51 78.3 °F /  25.7 °C 68.2 °F /  20.1 °C 30 in /  1014.8 hPa East 5.8 mph /  9.3 km/h 5.8 mph /  9.3 km/h 71 % 0 in /  0.0 mm
21:55 75.4 °F /  24.1 °C 69.1 °F /  20.6 °C 30 in /  1015.8 hPa ENE 2 mph /  3.2 km/h 3 mph /  4.8 km/h 81 % 0 in /  0.0 mm
21:56 78.1 °F /  25.6 °C 67.8 °F /  19.9 °C 30 in /  1014.8 hPa NNW 2.3 mph /  3.7 km/h 2.3 mph /  3.7 km/h 71 % 0 in /  0.0 mm
22:01 78.1 °F /  25.6 °C 67.8 °F /  19.9 °C 30 in /  1014.8 hPa ESE 4.6 mph /  7.4 km/h 4.6 mph /  7.4 km/h 71 % 0 in /  0.0 mm
22:05 75.4 °F /  24.1 °C 69.1 °F /  20.6 °C 30 in /  1014.8 hPa East 1 mph /  1.6 km/h 4 mph /  6.4 km/h 81 % 0 in /  0.0 mm
22:06 78.1 °F /  25.6 °C 67.8 °F /  19.9 °C 30 in /  1014.8 hPa ESE 3.5 mph /  5.6 km/h 3.5 mph /  5.6 km/h 71 % 0 in /  0.0 mm
22:11 77.9 °F /  25.5 °C 67.6 °F /  19.8 °C 30 in /  1015.8 hPa ESE 4.6 mph /  7.4 km/h 4.6 mph /  7.4 km/h 71 % 0 in /  0.0 mm
22:15 75.4 °F /  24.1 °C 69.1 °F /  20.6 °C 30 in /  1015.8 hPa East 2 mph /  3.2 km/h 3 mph /  4.8 km/h 81 % 0 in /  0.0 mm
22:16 77.7 °F /  25.4 °C 68 °F /  20.0 °C 30 in /  1015.8 hPa ENE 5.8 mph /  9.3 km/h 5.8 mph /  9.3 km/h 72 % 0 in /  0.0 mm
22:21 77.7 °F /  25.4 °C 68 °F /  20.0 °C 30 in /  1015.8 hPa ENE 4.6 mph /  7.4 km/h 4.6 mph /  7.4 km/h 72 % 0 in /  0.0 mm
22:25 75.6 °F /  24.2 °C 69.3 °F /  20.7 °C 30 in /  1015.8 hPa East 2 mph /  3.2 km/h 3 mph /  4.8 km/h 81 % 0 in /  0.0 mm
22:26 77.7 °F /  25.4 °C 68 °F /  20.0 °C 30 in /  1015.8 hPa East 3.5 mph /  5.6 km/h 3.5 mph /  5.6 km/h 72 % 0 in /  0.0 mm
22:31 77.5 °F /  25.3 °C 67.8 °F /  19.9 °C 30 in /  1015.8 hPa East 4.6 mph /  7.4 km/h 4.6 mph /  7.4 km/h 72 % 0 in /  0.0 mm
22:35 75.6 °F /  24.2 °C 69.3 °F /  20.7 °C 30 in /  1015.8 hPa East 2 mph /  3.2 km/h 2 mph /  3.2 km/h 81 % 0 in /  0.0 mm
22:36 77.4 °F /  25.2 °C 67.6 °F /  19.8 °C 30 in /  1015.8 hPa East 3.6 mph /  5.8 km/h 3.6 mph /  5.8 km/h 72 % 0 in /  0.0 mm
22:41 77.2 °F /  25.1 °C 67.5 °F /  19.7 °C 30 in /  1015.8 hPa ESE 2.3 mph /  3.7 km/h 2.3 mph /  3.7 km/h 72 % 0 in /  0.0 mm
22:45 75.6 °F /  24.2 °C 69.1 °F /  20.6 °C 30 in /  1015.8 hPa ESE 1 mph /  1.6 km/h 3 mph /  4.8 km/h 80 % 0 in /  0.0 mm
22:46 77.2 °F /  25.1 °C 67.5 °F /  19.7 °C 30 in /  1015.8 hPa ESE 3.5 mph /  5.6 km/h 3.5 mph /  5.6 km/h 72 % 0 in /  0.0 mm
22:51 77.2 °F /  25.1 °C 67.5 °F /  19.7 °C 30 in /  1015.8 hPa ESE 2 mph /  3.2 km/h 2 mph /  3.2 km/h 72 % 0 in /  0.0 mm
22:55 75.6 °F /  24.2 °C 69.1 °F /  20.6 °C 30 in /  1015.8 hPa Calm   4 mph /  6.4 km/h 80 % 0 in /  0.0 mm
22:56 77 °F /  25.0 °C 66.9 °F /  19.4 °C 30 in /  1015.8 hPa ESE 1.4 mph /  2.3 km/h 1.4 mph /  2.3 km/h 71 % 0 in /  0.0 mm
23:01 77 °F /  25.0 °C 67.3 °F /  19.6 °C 30 in /  1015.8 hPa ESE 2.3 mph /  3.7 km/h 2.3 mph /  3.7 km/h 72 % 0 in /  0.0 mm
23:05 75.6 °F /  24.2 °C 69.1 °F /  20.6 °C 30 in /  1015.8 hPa Calm   1 mph /  1.6 km/h 80 % 0 in /  0.0 mm
23:06 76.8 °F /  24.9 °C 67.5 °F /  19.7 °C 30 in /  1015.8 hPa East 2.4 mph /  3.9 km/h 2.4 mph /  3.9 km/h 73 % 0 in /  0.0 mm
23:11 76.8 °F /  24.9 °C 68.4 °F /  20.2 °C 30 in /  1014.8 hPa ESE 6.2 mph /  10.0 km/h 6.2 mph /  10.0 km/h 75 % 0 in /  0.0 mm
23:15 75.6 °F /  24.2 °C 69.1 °F /  20.6 °C 30 in /  1015.8 hPa Calm   2 mph /  3.2 km/h 80 % 0 in /  0.0 mm
23:16 76.6 °F /  24.8 °C 68.5 °F /  20.3 °C 30 in /  1014.8 hPa ENE 4 mph /  6.4 km/h 4 mph /  6.4 km/h 76 % 0 in /  0.0 mm
23:21 76.6 °F /  24.8 °C 68.5 °F /  20.3 °C 30 in /  1014.8 hPa ENE 4.6 mph /  7.4 km/h 4.6 mph /  7.4 km/h 76 % 0 in /  0.0 mm
23:25 75.6 °F /  24.2 °C 69.1 °F /  20.6 °C 30 in /  1015.8 hPa East 1 mph /  1.6 km/h 2 mph /  3.2 km/h 80 % 0 in /  0.0 mm
23:26 76.5 °F /  24.7 °C 68.4 °F /  20.2 °C 30 in /  1015.8 hPa ESE 4.7 mph /  7.6 km/h 4.7 mph /  7.6 km/h 76 % 0 in /  0.0 mm
23:31 76.3 °F /  24.6 °C 68.5 °F /  20.3 °C 30 in /  1015.8 hPa NNE 3.5 mph /  5.6 km/h 3.5 mph /  5.6 km/h 77 % 0 in /  0.0 mm
23:35 75.6 °F /  24.2 °C 69.1 °F /  20.6 °C 30 in /  1015.8 hPa East 3 mph /  4.8 km/h 3 mph /  4.8 km/h 80 % 0 in /  0.0 mm
23:36 76.3 °F /  24.6 °C 68.5 °F /  20.3 °C 30 in /  1015.8 hPa East 2.3 mph /  3.7 km/h 2.3 mph /  3.7 km/h 77 % 0 in /  0.0 mm
23:41 76.3 °F /  24.6 °C 68.5 °F /  20.3 °C 30 in /  1016.8 hPa East 2.3 mph /  3.7 km/h 2.3 mph /  3.7 km/h 77 % 0 in /  0.0 mm
23:45 75.4 °F /  24.1 °C 68.7 °F /  20.4 °C 30 in /  1015.8 hPa East 2 mph /  3.2 km/h 3 mph /  4.8 km/h 80 % 0 in /  0.0 mm
23:46 76.1 °F /  24.5 °C 68.7 °F /  20.4 °C 30 in /  1016.8 hPa ESE 5.8 mph /  9.3 km/h 5.8 mph /  9.3 km/h 78 % 0 in /  0.0 mm
23:51 76.1 °F /  24.5 °C 68.7 °F /  20.4 °C 30 in /  1016.8 hPa NE 3.5 mph /  5.6 km/h 3.5 mph /  5.6 km/h 78 % 0 in /  0.0 mm
23:55 75.6 °F /  24.2 °C 68.5 °F /  20.3 °C 30 in /  1015.8 hPa Calm   2 mph /  3.2 km/h 79 % 0 in /  0.0 mm
23:56 76.1 °F /  24.5 °C 68.7 °F /  20.4 °C 30 in /  1016.8 hPa NE 4 mph /  6.4 km/h 4 mph /  6.4 km/h 78 % 0 in /  0.0 mm
Meteo Sesrovires
Elogis d' Weather Underground - 3.75 mb

Guio original per  Jim McMurry - jmcmurry@mwt.net Adaptat per a la plantilla per  Wim van der Kuil - Leuven-Template.eu

Trobareu la nostra informacio del temps tambe a:

Weather Underground

AWEKAS